Time;durP1;ratioP1;P1;durP2;ratioP2;P2;SDS_P1;SDS_P2;PMS_P1;PMS_P2;Temp;Humidity;BMP_temperature;BMP_pressure;BME280_temperature;BME280_humidity;BME280_pressure;Samples;Min_cycle;Max_cycle;Signal;HPM_P1;HPM_P2
2022/03/23 00:00:00;;;;;;;;;;;2.40;82.00;;;;;;5103693;28;19926;-79
2022/03/23 00:02:26;;;;;;;;;;;2.40;82.70;;;;;;5103202;28;19908;-79
2022/03/23 00:04:53;;;;;;;;;;;2.40;82.70;;;;;;5102516;28;20358;-80
2022/03/23 00:07:20;;;;;;;;;;;2.40;83.20;;;;;;5085057;28;19908;-79
2022/03/23 00:09:45;;;;;;;;;;;2.30;82.90;;;;;;5084038;28;19972;-80
2022/03/23 00:12:11;;;;;;;;;;;2.40;82.80;;;;;;5083942;28;20351;-80
2022/03/23 00:14:37;;;;;;;;;;;2.40;82.20;;;;;;5103461;28;20422;-79
2022/03/23 00:17:03;;;;;;;;;;;2.10;81.50;;;;;;5084605;28;19919;-80
2022/03/23 00:19:29;;;;;;;;;;;2.40;82.00;;;;;;5103086;28;20630;-79
2022/03/23 00:21:55;;;;;;;;;;;2.50;82.20;;;;;;5102746;28;19947;-79
2022/03/23 00:24:20;;;;;;;;;;;2.40;81.90;;;;;;5103266;28;19912;-80
2022/03/23 00:26:46;;;;;;;;;;;2.40;82.20;;;;;;5101865;28;20283;-80
2022/03/23 00:29:11;;;;;;;;;;;2.40;82.40;;;;;;5103244;28;20180;-79
2022/03/23 00:31:37;;;;;;;;;;;3.10;83.00;;;;;;5083690;28;20425;-79
2022/03/23 00:34:03;;;;;;;;;;;2.40;83.00;;;;;;5102607;28;20502;-79
2022/03/23 00:36:28;;;;;;;;;;;2.30;83.00;;;;;;5108717;28;20048;-80
2022/03/23 00:38:54;;;;;;;;;;;2.70;83.50;;;;;;5090751;28;20302;-80
2022/03/23 00:41:20;;;;;;;;;;;2.20;83.60;;;;;;5085452;28;20236;-80
2022/03/23 00:43:46;;;;;;;;;;;2.20;84.10;;;;;;5085106;28;19915;-79
2022/03/23 00:46:11;;;;;;;;;;;2.10;84.00;;;;;;5102485;28;19908;-79
2022/03/23 00:48:37;;;;;;;;;;;2.10;84.40;;;;;;5103094;28;19908;-80
2022/03/23 00:51:03;;;;;;;;;;;2.00;84.60;;;;;;5102394;28;19920;-79
2022/03/23 00:53:29;;;;;;;;;;;2.00;84.90;;;;;;5083748;28;20422;-79
2022/03/23 00:55:55;;;;;;;;;;;1.90;85.10;;;;;;5102444;28;19988;-79
2022/03/23 00:58:20;;;;;;;;;;;1.90;86.00;;;;;;5084350;28;20014;-79
2022/03/23 01:00:47;;;;;;;;;;;1.90;85.60;;;;;;5083575;28;19924;-80
2022/03/23 01:03:12;;;;;;;;;;;2.00;85.80;;;;;;5083819;28;19908;-79
2022/03/23 01:05:38;;;;;;;;;;;2.00;85.40;;;;;;5083342;28;20134;-80
2022/03/23 01:08:05;;;;;;;;;;;2.00;85.20;;;;;;5101745;28;20377;-79
2022/03/23 01:10:31;;;;;;;;;;;2.00;85.40;;;;;;5102071;28;19915;-79
2022/03/23 01:12:58;;;;;;;;;;;1.90;85.60;;;;;;5102043;28;19922;-79
2022/03/23 01:15:23;;;;;;;;;;;1.90;85.70;;;;;;5083600;28;20177;-79
2022/03/23 01:17:49;;;;;;;;;;;1.80;85.80;;;;;;5083724;28;19998;-80
2022/03/23 01:20:16;;;;;;;;;;;1.80;85.90;;;;;;5083563;28;20521;-80
2022/03/23 01:22:43;;;;;;;;;;;1.80;86.10;;;;;;5101384;28;20510;-79
2022/03/23 01:25:09;;;;;;;;;;;3.30;87.10;;;;;;5100964;28;19908;-79
2022/03/23 01:27:35;;;;;;;;;;;1.70;86.30;;;;;;5082465;28;19918;-80
2022/03/23 01:30:01;;;;;;;;;;;1.70;86.70;;;;;;5100633;28;19962;-79
2022/03/23 01:32:26;;;;;;;;;;;1.70;86.70;;;;;;5082338;28;20241;-79
2022/03/23 01:34:52;;;;;;;;;;;1.60;87.20;;;;;;5082479;28;19966;-79
2022/03/23 01:37:18;;;;;;;;;;;1.60;87.30;;;;;;5082705;28;19950;-80
2022/03/23 01:39:43;;;;;;;;;;;1.50;87.30;;;;;;5099494;28;20211;-80
2022/03/23 01:42:09;;;;;;;;;;;1.50;87.40;;;;;;5100761;28;19922;-79
2022/03/23 01:44:34;;;;;;;;;;;1.60;87.80;;;;;;5082802;28;19914;-80
2022/03/23 01:47:02;;;;;;;;;;;1.60;87.50;;;;;;5105518;28;20433;-79
2022/03/23 01:49:27;;;;;;;;;;;1.60;87.60;;;;;;5107782;28;19980;-79
2022/03/23 01:51:53;;;;;;;;;;;1.50;87.50;;;;;;5109510;28;19924;-80
2022/03/23 01:54:19;;;;;;;;;;;1.50;87.70;;;;;;5108578;28;20168;-79
2022/03/23 01:56:45;;;;;;;;;;;1.40;87.90;;;;;;5103094;28;19952;-79
2022/03/23 01:59:11;;;;;;;;;;;1.40;88.00;;;;;;5083397;28;19943;-80
2022/03/23 02:01:40;;;;;;;;;;;1.50;88.20;;;;;;5082421;28;20406;-79
2022/03/23 02:04:06;;;;;;;;;;;1.50;87.70;;;;;;5082939;28;19999;-79
2022/03/23 02:06:32;;;;;;;;;;;1.50;87.90;;;;;;5082199;28;19951;-80
2022/03/23 02:08:58;;;;;;;;;;;1.40;88.50;;;;;;5082468;28;19983;-79
2022/03/23 02:11:24;;;;;;;;;;;1.50;88.20;;;;;;5082652;28;19915;-79
2022/03/23 02:13:50;;;;;;;;;;;1.40;88.20;;;;;;5082510;28;19912;-79
2022/03/23 02:16:15;;;;;;;;;;;1.50;88.20;;;;;;5083302;28;20418;-79
2022/03/23 02:18:41;;;;;;;;;;;1.40;88.30;;;;;;5101258;28;19907;-79
2022/03/23 02:21:06;;;;;;;;;;;3.40;89.70;;;;;;5084417;28;19912;-80
2022/03/23 02:23:32;;;;;;;;;;;1.40;88.60;;;;;;5107793;28;19915;-79
2022/03/23 02:26:00;;;;;;;;;;;1.40;88.50;;;;;;5108125;28;19908;-79
2022/03/23 02:28:26;;;;;;;;;;;1.30;89.10;;;;;;5107725;28;19907;-80
2022/03/23 02:30:52;;;;;;;;;;;1.30;88.80;;;;;;5102606;28;19918;-79
2022/03/23 02:33:19;;;;;;;;;;;1.20;89.10;;;;;;5083214;28;19908;-80
2022/03/23 02:35:44;;;;;;;;;;;1.20;89.60;;;;;;5082755;28;19914;-79
2022/03/23 02:38:10;;;;;;;;;;;1.10;89.70;;;;;;5100867;28;20272;-79
2022/03/23 02:40:36;;;;;;;;;;;1.20;89.90;;;;;;5082294;28;19923;-80
2022/03/23 02:43:01;;;;;;;;;;;1.10;89.70;;;;;;5101073;28;19915;-80
2022/03/23 02:45:27;;;;;;;;;;;1.00;90.10;;;;;;5105159;28;19911;-80
2022/03/23 02:47:52;;;;;;;;;;;1.10;90.40;;;;;;5087280;28;19908;-80
2022/03/23 02:50:18;;;;;;;;;;;1.20;89.70;;;;;;5103067;28;19919;-80
2022/03/23 03:04:05;;;;;;;;;;;1.20;89.40;;;;;;5104639;28;20010;-79
2022/03/23 03:06:31;;;;;;;;;;;1.20;89.60;;;;;;5103871;28;19989;-79
2022/03/23 03:08:56;;;;;;;;;;;-0.30;88.70;;;;;;5103578;28;20493;-80
2022/03/23 03:11:23;;;;;;;;;;;1.10;89.70;;;;;;5103593;28;19919;-80
2022/03/23 03:13:49;;;;;;;;;;;1.10;89.80;;;;;;5103464;28;19988;-80
2022/03/23 03:16:15;;;;;;;;;;;1.20;89.80;;;;;;5103549;28;19954;-79
2022/03/23 03:18:41;;;;;;;;;;;1.20;89.70;;;;;;5103840;28;19996;-79
2022/03/23 03:21:07;;;;;;;;;;;1.00;89.80;;;;;;5085166;28;19912;-79
2022/03/23 03:23:33;;;;;;;;;;;1.20;89.70;;;;;;5103440;28;19930;-80
2022/03/23 03:26:01;;;;;;;;;;;1.20;89.70;;;;;;5084542;28;20128;-80
2022/03/23 03:28:28;;;;;;;;;;;1.10;90.10;;;;;;5103467;28;20009;-79
2022/03/23 03:30:53;;;;;;;;;;;1.00;89.90;;;;;;5103114;28;20440;-79
2022/03/23 03:33:19;;;;;;;;;;;1.00;90.30;;;;;;5084498;28;19911;-79
2022/03/23 03:35:44;;;;;;;;;;;0.90;90.20;;;;;;5102822;28;20351;-79
2022/03/23 03:38:10;;;;;;;;;;;0.90;90.30;;;;;;5084568;28;20405;-80
2022/03/23 03:40:36;;;;;;;;;;;0.90;90.30;;;;;;5103519;28;20211;-79
2022/03/23 03:43:02;;;;;;;;;;;1.90;90.60;;;;;;5084949;28;20096;-79
2022/03/23 03:45:28;;;;;;;;;;;0.80;90.30;;;;;;5084536;28;20522;-79
2022/03/23 03:47:53;;;;;;;;;;;0.70;90.60;;;;;;5103718;28;19907;-79
2022/03/23 03:50:19;;;;;;;;;;;0.70;90.80;;;;;;5103085;27;20129;-80
2022/03/23 03:52:45;;;;;;;;;;;2.30;91.20;;;;;;5103006;28;20014;-79
2022/03/23 03:55:10;;;;;;;;;;;0.70;90.80;;;;;;5084681;28;20445;-79
2022/03/23 03:57:36;;;;;;;;;;;0.80;90.80;;;;;;5104025;28;19965;-80
2022/03/23 04:00:02;;;;;;;;;;;0.80;90.70;;;;;;5103875;28;20345;-79
2022/03/23 04:02:28;;;;;;;;;;;-0.60;90.10;;;;;;5084454;28;20370;-79
2022/03/23 04:04:54;;;;;;;;;;;1.10;90.70;;;;;;5104034;28;19948;-79
2022/03/23 04:07:19;;;;;;;;;;;0.80;90.50;;;;;;5103661;28;19919;-80
2022/03/23 04:09:45;;;;;;;;;;;0.80;90.50;;;;;;5103831;28;20161;-79
2022/03/23 04:12:10;;;;;;;;;;;0.70;90.60;;;;;;5103343;28;20006;-80
2022/03/23 04:14:36;;;;;;;;;;;0.70;91.00;;;;;;5085172;28;20508;-80
2022/03/23 04:17:02;;;;;;;;;;;0.80;90.70;;;;;;5103440;28;19915;-80
2022/03/23 04:19:27;;;;;;;;;;;0.80;90.90;;;;;;5085289;28;19907;-79
2022/03/23 04:21:53;;;;;;;;;;;0.80;90.80;;;;;;5084365;28;20006;-80
2022/03/23 04:24:18;;;;;;;;;;;0.70;90.70;;;;;;5103294;28;20200;-79
2022/03/23 04:26:44;;;;;;;;;;;1.00;91.00;;;;;;5084611;28;19915;-79
2022/03/23 04:29:10;;;;;;;;;;;0.70;91.10;;;;;;5085248;28;19990;-79
2022/03/23 04:31:35;;;;;;;;;;;0.70;91.00;;;;;;5102916;28;19916;-79
2022/03/23 04:34:01;;;;;;;;;;;0.60;91.00;;;;;;5084918;28;20326;-79
2022/03/23 04:36:26;;;;;;;;;;;1.50;91.60;;;;;;5084647;28;19908;-79
2022/03/23 04:38:52;;;;;;;;;;;0.70;90.90;;;;;;5084219;28;19916;-79
2022/03/23 04:41:18;;;;;;;;;;;0.70;90.80;;;;;;5102893;28;20036;-79
2022/03/23 04:43:44;;;;;;;;;;;0.60;90.90;;;;;;5102800;28;19930;-80
2022/03/23 04:46:09;;;;;;;;;;;0.60;91.10;;;;;;5102646;28;20124;-79
2022/03/23 04:48:35;;;;;;;;;;;0.50;91.00;;;;;;5105798;28;19918;-80
2022/03/23 04:51:01;;;;;;;;;;;0.50;91.10;;;;;;5105376;28;20390;-80
2022/03/23 04:53:26;;;;;;;;;;;2.20;91.60;;;;;;5109665;28;20535;-80
2022/03/23 04:55:52;;;;;;;;;;;0.50;91.20;;;;;;5111039;28;19912;-80
2022/03/23 04:58:17;;;;;;;;;;;0.50;91.10;;;;;;5110538;28;19908;-79
2022/03/23 05:00:43;;;;;;;;;;;0.60;91.10;;;;;;5109609;28;20355;-80
2022/03/23 05:03:09;;;;;;;;;;;0.60;91.20;;;;;;5105085;28;19999;-80
2022/03/23 05:05:34;;;;;;;;;;;1.50;91.70;;;;;;5103451;28;20362;-79
2022/03/23 05:08:00;;;;;;;;;;;0.60;91.10;;;;;;5103354;28;19908;-79
2022/03/23 05:10:27;;;;;;;;;;;0.60;91.10;;;;;;5103116;28;20007;-80
2022/03/23 05:12:53;;;;;;;;;;;0.60;91.30;;;;;;5084255;28;19915;-79
2022/03/23 05:15:19;;;;;;;;;;;0.50;91.30;;;;;;5102147;28;19908;-79
2022/03/23 05:17:45;;;;;;;;;;;0.50;91.30;;;;;;5084639;28;19944;-80
2022/03/23 05:20:11;;;;;;;;;;;0.50;91.30;;;;;;5102339;28;20220;-79
2022/03/23 05:22:37;;;;;;;;;;;0.60;91.30;;;;;;5083446;28;20522;-80
2022/03/23 05:25:04;;;;;;;;;;;0.70;91.30;;;;;;5084236;28;20023;-80
2022/03/23 05:27:33;;;;;;;;;;;0.70;91.30;;;;;;5084949;28;20797;-80
2022/03/23 05:29:59;;;;;;;;;;;0.70;91.20;;;;;;5083381;28;20166;-79
2022/03/23 05:32:25;;;;;;;;;;;0.70;91.20;;;;;;5082569;28;20625;-80
2022/03/23 05:34:50;;;;;;;;;;;0.80;91.00;;;;;;5102171;28;19915;-79
2022/03/23 05:37:17;;;;;;;;;;;0.80;90.90;;;;;;5083054;28;20021;-79
2022/03/23 05:39:43;;;;;;;;;;;2.00;91.00;;;;;;5106599;28;20021;-80
2022/03/23 05:42:08;;;;;;;;;;;0.90;90.40;;;;;;5108841;28;20053;-80
2022/03/23 05:44:34;;;;;;;;;;;1.50;90.50;;;;;;5090096;28;19955;-79
2022/03/23 05:47:00;;;;;;;;;;;1.10;90.30;;;;;;5086186;28;19984;-79
2022/03/23 05:49:26;;;;;;;;;;;2.70;90.70;;;;;;5105774;28;19964;-80
2022/03/23 05:51:52;;;;;;;;;;;1.20;90.00;;;;;;5107912;28;20298;-80
2022/03/23 05:54:18;;;;;;;;;;;1.20;89.70;;;;;;5091020;28;19964;-81
2022/03/23 05:56:43;;;;;;;;;;;1.50;89.40;;;;;;5109790;28;19915;-80
2022/03/23 05:59:09;;;;;;;;;;;1.40;89.30;;;;;;5111147;28;19919;-80
2022/03/23 06:01:35;;;;;;;;;;;1.50;88.80;;;;;;5108449;28;19931;-80
2022/03/23 06:04:00;;;;;;;;;;;1.50;89.00;;;;;;5083740;28;20410;-80
2022/03/23 06:06:26;;;;;;;;;;;1.60;88.70;;;;;;5101758;28;20196;-80
2022/03/23 06:08:52;;;;;;;;;;;1.60;88.30;;;;;;5082935;28;19908;-80
2022/03/23 06:11:17;;;;;;;;;;;1.70;88.20;;;;;;5101959;28;20568;-80
2022/03/23 06:13:44;;;;;;;;;;;1.80;88.20;;;;;;5083319;28;19995;-79
2022/03/23 06:16:11;;;;;;;;;;;1.90;88.00;;;;;;5101689;28;19923;-79
2022/03/23 06:18:36;;;;;;;;;;;2.00;87.50;;;;;;5102002;28;19908;-79
2022/03/23 06:21:03;;;;;;;;;;;2.20;87.10;;;;;;5101069;28;20310;-81
2022/03/23 06:23:28;;;;;;;;;;;2.20;86.50;;;;;;5082688;28;20037;-80
2022/03/23 06:25:54;;;;;;;;;;;4.00;87.30;;;;;;5101169;28;19908;-79
2022/03/23 06:28:21;;;;;;;;;;;2.50;86.40;;;;;;5101121;28;20210;-79
2022/03/23 06:30:47;;;;;;;;;;;2.50;86.00;;;;;;5100680;28;19919;-80
2022/03/23 06:33:13;;;;;;;;;;;2.60;85.70;;;;;;5082212;28;19968;-80
2022/03/23 06:35:38;;;;;;;;;;;2.60;85.50;;;;;;5082639;28;20350;-79
2022/03/23 06:38:04;;;;;;;;;;;2.70;85.40;;;;;;5101709;28;19908;-79
2022/03/23 06:40:29;;;;;;;;;;;2.80;85.20;;;;;;5101787;28;19923;-79
2022/03/23 06:42:55;;;;;;;;;;;2.90;85.30;;;;;;5083910;28;19915;-80
2022/03/23 06:45:20;;;;;;;;;;;3.10;85.00;;;;;;5101580;28;20278;-79
2022/03/23 06:47:46;;;;;;;;;;;3.20;83.50;;;;;;5101812;28;19908;-79
2022/03/23 06:50:12;;;;;;;;;;;3.30;83.20;;;;;;5085636;28;19912;-79
2022/03/23 06:52:37;;;;;;;;;;;3.40;82.80;;;;;;5103234;28;19957;-80
2022/03/23 06:55:03;;;;;;;;;;;3.60;82.10;;;;;;5104975;28;20307;-80
2022/03/23 06:57:29;;;;;;;;;;;3.70;81.30;;;;;;5104372;28;19955;-79
2022/03/23 06:59:56;;;;;;;;;;;3.90;80.50;;;;;;5104739;28;19950;-79
2022/03/23 07:02:21;;;;;;;;;;;4.10;79.60;;;;;;5107327;28;20460;-79
2022/03/23 07:04:47;;;;;;;;;;;4.20;78.60;;;;;;5110302;28;19908;-80
2022/03/23 07:07:13;;;;;;;;;;;4.30;79.50;;;;;;5104966;28;20283;-80
2022/03/23 07:09:40;;;;;;;;;;;4.50;78.80;;;;;;5103639;28;20294;-79
2022/03/23 07:12:10;;;;;;;;;;;4.60;78.20;;;;;;5084329;28;19927;-79
2022/03/23 07:14:37;;;;;;;;;;;4.70;77.50;;;;;;5103182;28;20242;-80
2022/03/23 07:17:12;;;;;;;;;;;4.80;77.10;;;;;;5084172;28;20369;-80
2022/03/23 07:19:38;;;;;;;;;;;5.00;76.70;;;;;;5102641;28;20313;-80
2022/03/23 07:22:03;;;;;;;;;;;5.20;75.40;;;;;;5085075;28;20079;-80
2022/03/23 07:24:29;;;;;;;;;;;5.40;74.60;;;;;;5084193;28;19951;-80
2022/03/23 07:26:55;;;;;;;;;;;5.50;73.60;;;;;;5085255;28;19919;-79
2022/03/23 07:29:20;;;;;;;;;;;5.70;72.20;;;;;;5103275;28;19980;-79
2022/03/23 07:31:46;;;;;;;;;;;5.80;71.30;;;;;;5102232;28;19923;-80
2022/03/23 07:34:18;;;;;;;;;;;5.80;70.70;;;;;;5083533;28;19992;-79
2022/03/23 07:36:44;;;;;;;;;;;6.00;70.20;;;;;;5084207;28;20215;-79
2022/03/23 07:39:09;;;;;;;;;;;6.00;69.60;;;;;;5106220;28;19919;-80
2022/03/23 07:41:35;;;;;;;;;;;6.20;69.00;;;;;;5089101;28;19914;-80
2022/03/23 07:44:01;;;;;;;;;;;6.30;67.60;;;;;;5090197;28;19918;-79
2022/03/23 07:46:26;;;;;;;;;;;8.40;68.30;;;;;;5089085;28;20354;-80
2022/03/23 07:48:52;;;;;;;;;;;6.50;65.90;;;;;;5091272;28;20329;-79
2022/03/23 07:51:17;;;;;;;;;;;6.60;65.20;;;;;;5092276;28;20332;-80
2022/03/23 07:53:43;;;;;;;;;;;6.70;65.50;;;;;;5111800;28;19915;-79
2022/03/23 07:56:09;;;;;;;;;;;6.90;64.20;;;;;;5113117;28;19908;-80
2022/03/23 07:58:34;;;;;;;;;;;7.10;63.30;;;;;;5093994;28;19923;-79
2022/03/23 08:01:00;;;;;;;;;;;7.20;63.10;;;;;;5100919;28;19923;-80
2022/03/23 08:03:25;;;;;;;;;;;7.20;61.60;;;;;;5118723;28;19939;-80
2022/03/23 08:05:51;;;;;;;;;;;7.40;61.40;;;;;;5099120;28;19915;-80
2022/03/23 08:08:16;;;;;;;;;;;7.60;60.40;;;;;;5097816;28;20116;-80
2022/03/23 08:10:43;;;;;;;;;;;7.70;59.20;;;;;;5111973;28;19947;-80
2022/03/23 08:13:12;;;;;;;;;;;7.90;58.40;;;;;;5109510;28;19916;-79
2022/03/23 08:15:38;;;;;;;;;;;8.10;57.50;;;;;;5106606;28;19908;-80
2022/03/23 08:18:04;;;;;;;;;;;8.30;56.90;;;;;;5104578;28;19908;-80
2022/03/23 08:20:33;;;;;;;;;;;8.50;56.70;;;;;;5088529;28;19911;-79
2022/03/23 08:22:59;;;;;;;;;;;8.60;55.30;;;;;;5107567;28;19915;-80
2022/03/23 08:25:25;;;;;;;;;;;8.90;54.60;;;;;;5090152;28;19907;-79
2022/03/23 08:27:51;;;;;;;;;;;9.00;54.60;;;;;;5088895;28;19908;-79
2022/03/23 08:30:16;;;;;;;;;;;9.00;53.10;;;;;;5108118;28;19950;-80
2022/03/23 08:32:42;;;;;;;;;;;9.30;52.60;;;;;;5110141;28;19968;-80
2022/03/23 08:35:07;;;;;;;;;;;9.30;53.20;;;;;;5092069;28;20386;-80
2022/03/23 08:37:33;;;;;;;;;;;9.90;51.60;;;;;;5108193;28;20457;-80
2022/03/23 08:40:05;;;;;;;;;;;9.40;50.30;;;;;;5108003;28;19912;-80
2022/03/23 08:42:31;;;;;;;;;;;9.50;50.30;;;;;;5108610;28;19919;-80
2022/03/23 08:44:56;;;;;;;;;;;9.80;49.70;;;;;;5107327;28;19908;-80
2022/03/23 08:47:22;;;;;;;;;;;9.90;49.50;;;;;;5089621;28;20176;-80
2022/03/23 08:49:48;;;;;;;;;;;10.00;49.40;;;;;;5088272;28;19929;-80
2022/03/23 08:52:13;;;;;;;;;;;10.20;49.40;;;;;;5107801;28;20243;-80
2022/03/23 08:54:39;;;;;;;;;;;10.30;48.60;;;;;;5093603;28;19919;-80
2022/03/23 08:57:05;;;;;;;;;;;10.50;47.70;;;;;;5094475;28;20417;-80
2022/03/23 08:59:30;;;;;;;;;;;10.60;47.10;;;;;;5112885;28;19920;-80
2022/03/23 09:01:56;;;;;;;;;;;10.70;46.40;;;;;;5109281;28;20184;-80
2022/03/23 09:04:22;;;;;;;;;;;10.80;46.20;;;;;;5104970;28;19908;-80
2022/03/23 09:06:50;;;;;;;;;;;11.10;45.40;;;;;;5083837;28;19915;-80
2022/03/23 09:09:15;;;;;;;;;;;11.30;44.90;;;;;;5084554;28;19929;-80
2022/03/23 09:11:43;;;;;;;;;;;11.50;44.30;;;;;;5105459;28;19922;-82
2022/03/23 09:14:12;;;;;;;;;;;11.70;43.40;;;;;;5106842;28;20007;-80
2022/03/23 09:16:38;;;;;;;;;;;11.70;43.00;;;;;;5087019;28;19989;-80
2022/03/23 09:19:03;;;;;;;;;;;11.90;43.30;;;;;;5084831;28;19907;-80
2022/03/23 09:21:29;;;;;;;;;;;12.10;42.70;;;;;;5083172;28;20480;-80
2022/03/23 09:23:55;;;;;;;;;;;12.30;42.30;;;;;;5101031;28;20407;-80
2022/03/23 09:26:20;;;;;;;;;;;12.40;41.90;;;;;;5100646;28;20199;-80
2022/03/23 09:28:46;;;;;;;;;;;12.40;42.70;;;;;;5082147;28;19916;-80
2022/03/23 09:31:12;;;;;;;;;;;12.60;42.30;;;;;;5081350;28;20040;-81
2022/03/23 09:33:38;;;;;;;;;;;12.70;41.50;;;;;;5099950;28;19930;-80
2022/03/23 09:36:04;;;;;;;;;;;12.80;41.90;;;;;;5099173;28;19916;-80
2022/03/23 09:38:30;;;;;;;;;;;13.00;41.40;;;;;;5099718;28;20200;-80
2022/03/23 09:40:56;;;;;;;;;;;13.10;40.80;;;;;;5099579;28;19908;-83
2022/03/23 09:43:23;;;;;;;;;;;13.00;40.50;;;;;;5080706;28;19915;-80
2022/03/23 09:45:50;;;;;;;;;;;13.30;40.40;;;;;;5080957;28;19976;-80
2022/03/23 09:48:17;;;;;;;;;;;13.50;38.40;;;;;;5099803;28;20318;-80
2022/03/23 09:50:48;;;;;;;;;;;13.70;39.00;;;;;;5099174;28;19919;-80
2022/03/23 09:53:14;;;;;;;;;;;13.70;39.60;;;;;;5099123;28;20234;-80
2022/03/23 09:55:42;;;;;;;;;;;13.90;39.10;;;;;;5098600;28;20410;-81
2022/03/23 09:58:07;;;;;;;;;;;13.90;38.90;;;;;;5080665;28;19908;-80
2022/03/23 10:00:37;;;;;;;;;;;13.90;39.10;;;;;;5079300;28;20447;-80
2022/03/23 10:03:12;;;;;;;;;;;14.10;38.90;;;;;;5080531;28;19914;-81
2022/03/23 10:05:57;;;;;;;;;;;14.00;39.00;;;;;;5080581;28;20150;-81
2022/03/23 10:08:28;;;;;;;;;;;14.20;39.50;;;;;;5098448;28;20059;-79
2022/03/23 10:11:12;;;;;;;;;;;13.90;39.60;;;;;;5080584;28;19912;-81
2022/03/23 10:13:56;;;;;;;;;;;13.90;40.20;;;;;;5098530;28;19952;-80
2022/03/23 10:16:40;;;;;;;;;;;14.10;40.50;;;;;;5098218;28;19908;-81
2022/03/23 10:19:06;;;;;;;;;;;14.20;38.70;;;;;;5098574;28;20096;-81
2022/03/23 10:21:33;;;;;;;;;;;14.50;38.90;;;;;;5080081;28;19972;-81
2022/03/23 10:24:02;;;;;;;;;;;14.70;38.70;;;;;;5098584;28;19923;-79
2022/03/23 10:26:28;;;;;;;;;;;14.50;39.10;;;;;;5098534;28;20325;-79
2022/03/23 10:28:54;;;;;;;;;;;14.50;38.90;;;;;;5098621;28;19907;-79
2022/03/23 10:31:21;;;;;;;;;;;14.80;38.80;;;;;;5079936;28;20460;-79
2022/03/23 10:34:07;;;;;;;;;;;14.90;39.40;;;;;;5098146;28;21057;-78
2022/03/23 10:36:33;;;;;;;;;;;15.30;38.40;;;;;;5080179;28;19914;-79
2022/03/23 10:39:00;;;;;;;;;;;15.20;38.50;;;;;;5098816;28;20009;-78
2022/03/23 10:41:27;;;;;;;;;;;15.50;38.40;;;;;;5079879;28;20091;-79
2022/03/23 10:43:52;;;;;;;;;;;15.80;37.40;;;;;;5079393;28;19908;-78
2022/03/23 10:46:20;;;;;;;;;;;15.90;37.10;;;;;;5079520;28;19919;-79
2022/03/23 10:48:50;;;;;;;;;;;15.70;37.10;;;;;;5079907;28;19946;-79
2022/03/23 10:51:24;;;;;;;;;;;16.10;36.70;;;;;;5098075;28;19916;-78
2022/03/23 10:53:50;;;;;;;;;;;16.30;36.40;;;;;;5079510;28;20014;-78
2022/03/23 10:56:16;;;;;;;;;;;16.50;36.10;;;;;;5098080;28;20003;-78
2022/03/23 10:58:41;;;;;;;;;;;16.50;35.80;;;;;;5097876;28;20333;-81
2022/03/23 11:01:08;;;;;;;;;;;16.80;35.20;;;;;;5079318;28;19931;-78
2022/03/23 11:03:38;;;;;;;;;;;16.70;35.10;;;;;;5102406;28;19911;-78
2022/03/23 11:06:05;;;;;;;;;;;16.70;34.50;;;;;;5115173;28;19946;-82
2022/03/23 11:08:31;;;;;;;;;;;17.00;34.50;;;;;;5113614;28;19912;-80
2022/03/23 11:19:10;;;;;;;;;;;17.60;33.40;;;;;;5102965;28;20516;-81
2022/03/23 11:21:56;;;;;;;;;;;17.70;32.80;;;;;;5083989;28;20395;-78
2022/03/23 11:24:22;;;;;;;;;;;17.80;32.60;;;;;;5102165;28;19923;-80
2022/03/23 11:26:49;;;;;;;;;;;18.00;33.00;;;;;;5084546;28;19929;-81
2022/03/23 11:29:15;;;;;;;;;;;18.30;32.30;;;;;;5102280;28;20064;-80
2022/03/23 11:31:41;;;;;;;;;;;18.50;31.70;;;;;;5082875;28;19926;-81
2022/03/23 11:34:09;;;;;;;;;;;18.70;31.80;;;;;;5101552;28;19915;-81
2022/03/23 11:36:35;;;;;;;;;;;18.90;31.90;;;;;;5101824;28;19990;-81
2022/03/23 11:39:01;;;;;;;;;;;19.20;31.80;;;;;;5101790;28;20015;-81
2022/03/23 11:41:26;;;;;;;;;;;19.30;31.50;;;;;;5101392;28;19938;-81
2022/03/23 11:43:52;;;;;;;;;;;19.40;31.20;;;;;;5101678;28;19907;-81
2022/03/23 11:46:22;;;;;;;;;;;19.50;31.00;;;;;;5101019;28;20014;-81
2022/03/23 11:48:53;;;;;;;;;;;19.50;30.70;;;;;;5101442;28;19908;-79
2022/03/23 11:51:22;;;;;;;;;;;19.60;30.80;;;;;;5082226;28;19907;-79
2022/03/23 11:53:55;;;;;;;;;;;19.80;30.60;;;;;;5101117;28;19973;-78
2022/03/23 11:56:24;;;;;;;;;;;20.00;30.10;;;;;;5101466;28;19976;-79
2022/03/23 11:58:50;;;;;;;;;;;20.20;30.00;;;;;;5101285;28;20188;-79
2022/03/23 12:01:15;;;;;;;;;;;20.40;29.80;;;;;;5101139;28;20264;-80
2022/03/23 12:03:41;;;;;;;;;;;20.70;29.30;;;;;;5101168;28;19995;-80
2022/03/23 12:06:09;;;;;;;;;;;20.40;29.30;;;;;;5101084;28;19908;-81
2022/03/23 12:08:57;;;;;;;;;;;20.60;29.10;;;;;;5101501;28;19934;-81
2022/03/23 12:11:32;;;;;;;;;;;20.90;29.60;;;;;;5082681;28;20223;-81
2022/03/23 12:13:58;;;;;;;;;;;21.30;28.50;;;;;;5082374;28;19922;-81
2022/03/23 12:16:43;;;;;;;;;;;21.40;28.20;;;;;;5100849;28;19916;-80
2022/03/23 12:19:10;;;;;;;;;;;21.70;28.30;;;;;;5100756;28;19944;-80
2022/03/23 12:21:54;;;;;;;;;;;22.00;29.60;;;;;;5100621;28;19980;-80
2022/03/23 12:24:35;;;;;;;;;;;22.60;29.20;;;;;;5081542;28;19994;-80
2022/03/23 12:27:07;;;;;;;;;;;22.10;26.80;;;;;;5100473;28;20019;-80
2022/03/23 12:29:35;;;;;;;;;;;21.90;25.90;;;;;;5100555;28;20430;-79
2022/03/23 12:32:03;;;;;;;;;;;21.90;26.10;;;;;;5100357;28;19919;-80
2022/03/23 12:34:29;;;;;;;;;;;22.20;27.00;;;;;;5100506;28;19915;-81
2022/03/23 12:37:06;;;;;;;;;;;22.50;26.70;;;;;;5100534;28;19908;-80
2022/03/23 12:39:35;;;;;;;;;;;22.80;26.70;;;;;;5100394;28;19907;-79
2022/03/23 12:42:16;;;;;;;;;;;23.00;26.80;;;;;;5082039;28;20433;-81
2022/03/23 12:44:44;;;;;;;;;;;23.10;26.00;;;;;;5100094;28;20017;-81
2022/03/23 12:47:20;;;;;;;;;;;23.20;26.10;;;;;;5100145;28;19911;-80
2022/03/23 12:58:13;;;;;;;;;;;23.80;24.90;;;;;;5099459;28;19973;-81
2022/03/23 13:00:49;;;;;;;;;;;23.30;24.40;;;;;;5099837;28;19926;-81
2022/03/23 13:03:14;;;;;;;;;;;23.10;24.80;;;;;;5100056;28;19930;-80
2022/03/23 13:05:58;;;;;;;;;;;23.70;25.80;;;;;;5081631;28;20374;-79
2022/03/23 13:08:29;;;;;;;;;;;24.10;24.90;;;;;;5080994;28;19908;-79
2022/03/23 13:11:06;;;;;;;;;;;24.40;24.70;;;;;;5081341;28;20398;-79
2022/03/23 13:13:32;;;;;;;;;;;24.40;23.70;;;;;;5099497;28;20111;-79
2022/03/23 13:16:03;;;;;;;;;;;24.40;23.70;;;;;;5099268;28;19908;-79
2022/03/23 13:18:32;;;;;;;;;;;24.20;23.90;;;;;;5081142;28;20413;-78
2022/03/23 13:20:58;;;;;;;;;;;24.20;23.60;;;;;;5099457;28;19923;-79
2022/03/23 13:23:25;;;;;;;;;;;24.40;24.00;;;;;;5099108;28;19961;-79
2022/03/23 13:26:03;;;;;;;;;;;24.60;24.40;;;;;;5099118;28;19956;-79
2022/03/23 13:28:50;;;;;;;;;;;24.70;23.40;;;;;;5080782;28;19908;-79
2022/03/23 13:31:17;;;;;;;;;;;24.70;23.70;;;;;;5099309;28;19907;-79
2022/03/23 13:33:42;;;;;;;;;;;24.90;23.30;;;;;;5100323;28;20027;-79
2022/03/23 13:36:09;;;;;;;;;;;24.90;23.10;;;;;;5101442;28;20003;-78
2022/03/23 13:38:35;;;;;;;;;;;25.10;23.00;;;;;;5099749;28;19999;-79
2022/03/23 13:43:45;;;;;;;;;;;25.40;23.20;;;;;;5099672;28;19993;-79
2022/03/23 13:46:10;;;;;;;;;;;25.50;23.00;;;;;;5099155;28;20561;-79
2022/03/23 13:48:36;;;;;;;;;;;25.50;22.50;;;;;;5099323;28;19908;-79
2022/03/23 13:51:02;;;;;;;;;;;25.30;22.60;;;;;;5098707;28;19916;-79
2022/03/23 13:53:28;;;;;;;;;;;25.40;22.50;;;;;;5098840;28;20350;-79
2022/03/23 13:55:55;;;;;;;;;;;25.50;23.10;;;;;;5098729;28;20514;-79
2022/03/23 13:58:21;;;;;;;;;;;25.70;22.70;;;;;;5098790;28;19980;-79
2022/03/23 14:00:50;;;;;;;;;;;26.10;23.00;;;;;;5099020;28;19926;-79
2022/03/23 14:03:23;;;;;;;;;;;26.30;22.70;;;;;;5080362;28;19908;-79
2022/03/23 14:06:07;;;;;;;;;;;26.70;22.50;;;;;;5102543;28;20233;-79
2022/03/23 14:08:33;;;;;;;;;;;26.70;23.10;;;;;;5116194;28;19955;-79
2022/03/23 14:10:58;;;;;;;;;;;26.90;22.40;;;;;;5117953;28;19919;-80
2022/03/23 14:13:25;;;;;;;;;;;27.20;22.20;;;;;;5122394;28;19978;-79
2022/03/23 14:15:52;;;;;;;;;;;27.30;22.60;;;;;;5090867;28;19912;-79
2022/03/23 14:18:22;;;;;;;;;;;27.40;22.40;;;;;;5100701;28;19923;-79
2022/03/23 14:20:52;;;;;;;;;;;27.40;22.90;;;;;;5099561;28;19912;-79
2022/03/23 14:23:19;;;;;;;;;;;27.80;22.80;;;;;;5099625;28;20303;-79
2022/03/23 14:25:45;;;;;;;;;;;28.10;22.80;;;;;;5098809;28;20169;-79
2022/03/23 14:28:19;;;;;;;;;;;28.20;22.50;;;;;;5098791;28;19908;-78
2022/03/23 14:30:49;;;;;;;;;;;28.20;22.30;;;;;;5098799;28;19908;-80
2022/03/23 14:33:18;;;;;;;;;;;27.70;22.50;;;;;;5079977;28;19976;-80
2022/03/23 14:35:44;;;;;;;;;;;27.60;22.30;;;;;;5079920;28;19908;-80
2022/03/23 14:38:12;;;;;;;;;;;27.50;22.50;;;;;;5079324;28;19908;-79
2022/03/23 14:40:44;;;;;;;;;;;27.60;22.80;;;;;;5079959;28;19911;-79
2022/03/23 14:43:42;;;;;;;;;;;27.50;22.40;;;;;;5098440;28;19926;-80
2022/03/23 14:46:23;;;;;;;;;;;27.50;22.40;;;;;;5016507;28;19909;-80
2022/03/23 14:49:03;;;;;;;;;;;27.10;22.30;;;;;;5018412;28;19909;-79
2022/03/23 14:51:29;;;;;;;;;;;26.70;22.50;;;;;;5018482;28;19953;-79
2022/03/23 14:53:55;;;;;;;;;;;26.70;22.90;;;;;;5018227;28;20447;-79